createdAt,value
2023-01-01T00:00:12.806Z,19.73
2023-01-01T00:02:40.514Z,21.47
2023-01-01T00:05:10.230Z,20.10
2023-01-01T00:07:38.037Z,21.13
2023-01-01T00:10:25.922Z,21.70
2023-01-01T00:12:53.558Z,24.93
2023-01-01T00:15:21.164Z,21.40
2023-01-01T00:17:48.891Z,20.53
2023-01-01T00:20:18.533Z,18.10
2023-01-01T00:22:55.724Z,17.00
2023-01-01T00:25:24.147Z,16.60
2023-01-01T00:27:52.044Z,14.30
2023-01-01T00:30:19.679Z,17.60
2023-01-01T00:32:54.791Z,17.33
2023-01-01T00:35:25.108Z,16.70
2023-01-01T00:37:53.645Z,14.87
2023-01-01T00:40:21.236Z,15.37
2023-01-01T00:42:48.786Z,15.60
2023-01-01T00:45:21.335Z,15.83
2023-01-01T00:47:50.522Z,16.70
2023-01-01T00:50:20.064Z,15.77
2023-01-01T00:52:49.797Z,13.80
2023-01-01T00:55:18.760Z,15.03
2023-01-01T00:57:46.756Z,15.20
2023-01-01T01:00:16.002Z,13.10
2023-01-01T01:02:43.706Z,13.10
2023-01-01T01:05:11.480Z,12.73
2023-01-01T01:07:39.904Z,11.43
2023-01-01T01:10:11.992Z,12.37
2023-01-01T01:12:39.885Z,13.03
2023-01-01T01:15:08.843Z,13.70
2023-01-01T01:17:36.765Z,15.17
2023-01-01T01:20:05.833Z,13.70
2023-01-01T01:22:34.687Z,14.80
2023-01-01T01:25:02.342Z,15.87
2023-01-01T01:27:31.253Z,17.03
2023-01-01T01:29:58.919Z,18.47
2023-01-01T01:32:26.475Z,18.53
2023-01-01T01:34:54.091Z,21.50
2023-01-01T01:37:21.715Z,19.70
2023-01-01T01:39:53.766Z,22.30
2023-01-01T01:42:22.099Z,21.30
2023-01-01T01:44:57.001Z,22.10
2023-01-01T01:47:32.001Z,23.07
2023-01-01T01:50:05.162Z,24.90
2023-01-01T01:52:35.498Z,24.03
2023-01-01T01:55:06.829Z,24.23
2023-01-01T01:57:35.041Z,27.03
2023-01-01T02:00:10.934Z,25.70
2023-01-01T02:02:46.218Z,27.00
2023-01-01T02:05:14.410Z,29.97
2023-01-01T02:07:42.451Z,29.47
2023-01-01T02:10:10.500Z,31.27
2023-01-01T02:12:38.132Z,31.23
2023-01-01T02:15:15.931Z,30.20
2023-01-01T02:17:51.977Z,28.87
2023-01-01T02:20:29.539Z,26.83
2023-01-01T02:23:18.670Z,27.50
2023-01-01T02:26:03.230Z,25.03
2023-01-01T02:28:55.509Z,28.90
2023-01-01T02:31:27.583Z,25.87
2023-01-01T02:34:00.214Z,28.13
2023-01-01T02:36:29.240Z,28.27
2023-01-01T02:39:01.234Z,28.93
2023-01-01T02:41:32.841Z,31.30
2023-01-01T02:46:33.165Z,31.97
2023-01-01T02:49:07.887Z,31.57
2023-01-01T02:51:48.373Z,29.93
2023-01-01T02:54:31.616Z,27.80
2023-01-01T02:57:08.886Z,31.97
2023-01-01T03:00:17.593Z,29.57
2023-01-01T03:02:56.091Z,29.73
2023-01-01T03:05:32.520Z,30.10
2023-01-01T03:08:08.116Z,28.80
2023-01-01T03:10:45.476Z,28.37
2023-01-01T03:13:20.690Z,28.67
2023-01-01T03:15:59.746Z,28.43
2023-01-01T03:18:33.919Z,26.63
2023-01-01T03:21:05.251Z,23.70
2023-01-01T03:23:40.443Z,23.30
2023-01-01T03:26:13.149Z,22.20
2023-01-01T03:28:45.899Z,22.50
2023-01-01T03:31:19.555Z,20.43
2023-01-01T03:33:50.291Z,18.40
2023-01-01T03:36:22.724Z,17.93
2023-01-01T03:38:53.958Z,18.90
2023-01-01T03:41:27.402Z,18.20
2023-01-01T03:44:02.314Z,18.47
2023-01-01T03:46:34.452Z,19.13
2023-01-01T03:49:04.674Z,16.90
2023-01-01T03:51:44.256Z,16.63
2023-01-01T03:54:23.507Z,18.80
2023-01-01T03:56:59.274Z,20.60
2023-01-01T03:59:34.210Z,17.23
2023-01-01T04:02:08.316Z,16.53
2023-01-01T04:04:36.699Z,14.90
2023-01-01T04:07:14.548Z,15.63
2023-01-01T04:09:48.002Z,15.43
2023-01-01T04:12:16.841Z,14.57
2023-01-01T04:14:44.811Z,12.10
2023-01-01T04:17:13.945Z,11.70
2023-01-01T04:19:41.553Z,11.57
2023-01-01T04:22:09.108Z,10.60
2023-01-01T04:24:36.688Z,10.33
2023-01-01T04:27:04.700Z,11.40
2023-01-01T04:29:32.248Z,10.97
2023-01-01T04:31:59.819Z,9.80
2023-01-01T04:34:28.647Z,10.33
2023-01-01T04:36:56.366Z,11.23
2023-01-01T04:39:23.994Z,11.43
2023-01-01T04:41:51.527Z,10.40
2023-01-01T04:44:19.721Z,10.83
2023-01-01T04:46:47.313Z,9.93
2023-01-01T04:49:14.919Z,9.97
2023-01-01T04:51:43.889Z,10.10
2023-01-01T04:54:11.437Z,9.60
2023-01-01T04:56:39.004Z,9.77
2023-01-01T04:59:06.603Z,10.40
2023-01-01T05:01:34.237Z,10.40
2023-01-01T05:04:05.103Z,9.67
2023-01-01T05:06:32.843Z,10.70
2023-01-01T05:09:04.016Z,10.93
2023-01-01T05:11:32.170Z,10.87
2023-01-01T05:14:01.088Z,10.60
2023-01-01T05:16:31.163Z,10.90
2023-01-01T05:18:59.335Z,10.30
2023-01-01T05:21:28.407Z,9.97
2023-01-01T05:23:58.307Z,10.63
2023-01-01T05:26:31.757Z,9.80
2023-01-01T05:29:00.976Z,10.50
2023-01-01T05:31:30.804Z,8.93
2023-01-01T05:36:26.840Z,9.13
2023-01-01T05:38:54.761Z,9.93
2023-01-01T05:41:23.494Z,10.00
2023-01-01T05:43:53.161Z,10.03
2023-01-01T05:46:21.916Z,8.87
2023-01-01T05:48:50.423Z,9.10
2023-01-01T05:51:19.665Z,11.03
2023-01-01T05:53:47.635Z,8.30
2023-01-01T05:56:16.524Z,8.30
2023-01-01T05:58:44.955Z,8.30
2023-01-01T06:01:15.911Z,8.77
2023-01-01T06:03:44.531Z,8.50
2023-01-01T06:06:14.155Z,8.27
2023-01-01T06:08:42.151Z,7.57
2023-01-01T06:11:13.062Z,8.37
2023-01-01T06:13:40.675Z,7.73
2023-01-01T06:16:08.900Z,7.60
2023-01-01T06:18:38.031Z,7.50
2023-01-01T06:21:06.997Z,6.27
2023-01-01T06:23:34.885Z,6.20
2023-01-01T06:26:07.014Z,6.10
2023-01-01T06:28:34.561Z,7.17
2023-01-01T06:31:03.170Z,6.80
2023-01-01T06:33:31.579Z,6.67
2023-01-01T06:36:03.307Z,5.43
2023-01-01T06:38:32.418Z,5.80
2023-01-01T06:41:02.280Z,5.17
2023-01-01T06:43:31.781Z,5.30
2023-01-01T06:46:03.995Z,6.00
2023-01-01T06:48:33.894Z,5.53
2023-01-01T06:51:10.512Z,5.30
2023-01-01T06:53:38.290Z,5.13
2023-01-01T06:56:06.778Z,5.67
2023-01-01T06:58:34.772Z,5.70
2023-01-01T07:01:08.807Z,6.33
2023-01-01T07:03:37.542Z,5.90
2023-01-01T07:06:07.314Z,5.23
2023-01-01T07:08:34.919Z,5.87
2023-01-01T07:11:02.818Z,4.97
2023-01-01T07:13:31.654Z,5.83
2023-01-01T07:15:59.545Z,5.93
2023-01-01T07:18:27.564Z,5.63
2023-01-01T07:20:57.594Z,5.20
2023-01-01T07:23:28.100Z,4.90
2023-01-01T07:25:56.398Z,5.43
2023-01-01T07:28:25.578Z,5.73
2023-01-01T07:30:54.436Z,5.47
2023-01-01T07:33:24.073Z,5.50
2023-01-01T07:35:51.981Z,5.47
2023-01-01T07:38:19.657Z,4.93
2023-01-01T07:40:48.571Z,4.57
2023-01-01T07:43:16.175Z,4.60
2023-01-01T07:45:43.755Z,5.03
2023-01-01T07:48:15.986Z,4.60
2023-01-01T07:50:43.992Z,4.20
2023-01-01T07:53:11.575Z,4.70
2023-01-01T07:55:41.541Z,3.80
2023-01-01T07:58:12.300Z,3.70
2023-01-01T08:00:40.462Z,4.57
2023-01-01T08:03:08.331Z,4.80
2023-01-01T08:05:36.029Z,4.20
2023-01-01T08:08:03.713Z,4.60
2023-01-01T08:10:32.309Z,3.73
2023-01-01T08:13:01.593Z,4.87
2023-01-01T08:15:30.865Z,4.00
2023-01-01T08:17:59.158Z,3.13
2023-01-01T08:20:28.088Z,3.47
2023-01-01T08:23:03.002Z,3.53
2023-01-01T08:25:34.181Z,3.80
2023-01-01T08:28:03.174Z,3.33
2023-01-01T08:30:32.139Z,4.50
2023-01-01T08:32:59.717Z,3.20
2023-01-01T08:35:27.606Z,3.43
2023-01-01T08:37:56.256Z,3.70
2023-01-01T08:40:24.020Z,3.50
2023-01-01T08:42:51.563Z,3.73
2023-01-01T08:45:19.199Z,3.10
2023-01-01T08:47:48.138Z,3.40
2023-01-01T08:50:15.962Z,2.90
2023-01-01T08:52:44.604Z,3.40
2023-01-01T08:55:12.169Z,3.17
2023-01-01T08:57:39.736Z,2.93
2023-01-01T09:00:09.721Z,2.80
2023-01-01T09:02:37.968Z,3.40
2023-01-01T09:05:08.367Z,3.53
2023-01-01T09:07:35.919Z,3.00
2023-01-01T09:10:03.632Z,2.73
2023-01-01T09:12:32.338Z,3.30
2023-01-01T09:15:00.146Z,2.63
2023-01-01T09:17:29.877Z,3.23
2023-01-01T09:19:57.455Z,3.27
2023-01-01T09:22:26.473Z,3.47
2023-01-01T09:24:54.340Z,2.80
2023-01-01T09:27:22.027Z,2.67
2023-01-01T09:29:49.635Z,2.93
2023-01-01T09:32:18.550Z,2.93
2023-01-01T09:34:54.525Z,3.27
2023-01-01T09:37:23.850Z,3.90
2023-01-01T09:39:52.825Z,3.70
2023-01-01T09:42:31.119Z,3.60
2023-01-01T09:45:15.974Z,2.93
2023-01-01T09:47:47.030Z,3.30
2023-01-01T09:50:19.057Z,2.40
2023-01-01T09:52:53.967Z,3.50
2023-01-01T09:55:27.931Z,2.73
2023-01-01T09:57:56.633Z,3.20
2023-01-01T10:00:25.189Z,2.80
2023-01-01T10:03:29.637Z,3.23
2023-01-01T10:06:05.656Z,28.43
2023-01-01T10:08:44.460Z,6.77
2023-01-01T10:11:20.349Z,3.13
2023-01-01T10:13:48.198Z,3.97
2023-01-01T10:16:25.002Z,2.60
2023-01-01T10:18:57.665Z,2.47
2023-01-01T10:21:28.489Z,2.67
2023-01-01T10:23:59.453Z,3.60
2023-01-01T10:26:32.481Z,2.87
2023-01-01T10:29:04.462Z,2.73
2023-01-01T10:31:35.258Z,3.07
2023-01-01T10:34:07.783Z,2.30
2023-01-01T10:36:36.187Z,2.90
2023-01-01T10:39:03.750Z,1.70
2023-01-01T10:41:32.753Z,2.43
2023-01-01T10:44:00.544Z,2.33
2023-01-01T10:46:32.179Z,2.67
2023-01-01T10:49:10.772Z,2.40
2023-01-01T10:51:43.595Z,3.80
2023-01-01T10:54:31.879Z,8.10
2023-01-01T10:57:01.569Z,2.50
2023-01-01T10:59:39.148Z,2.43
2023-01-01T11:02:19.823Z,4.10
2023-01-01T11:04:48.138Z,2.43
2023-01-01T11:07:24.273Z,2.73
2023-01-01T11:10:03.070Z,4.07
2023-01-01T11:15:32.006Z,2.60
2023-01-01T11:18:05.498Z,2.33
2023-01-01T11:20:34.446Z,3.20
2023-01-01T11:23:19.798Z,2.93
2023-01-01T11:26:02.412Z,1.97
2023-01-01T11:28:34.498Z,3.33
2023-01-01T11:31:13.480Z,2.27
2023-01-01T11:33:46.584Z,2.23
2023-01-01T11:36:22.493Z,2.20
2023-01-01T11:38:52.961Z,3.30
2023-01-01T11:41:20.764Z,2.33
2023-01-01T11:43:50.014Z,2.53
2023-01-01T11:46:24.457Z,2.80
2023-01-01T11:48:54.557Z,2.80
2023-01-01T11:51:31.534Z,1.80
2023-01-01T11:54:21.957Z,2.43
2023-01-01T11:56:52.970Z,2.73
2023-01-01T11:59:27.785Z,2.47
2023-01-01T12:01:59.258Z,1.83
2023-01-01T12:04:33.897Z,2.50
2023-01-01T12:07:06.252Z,2.47
2023-01-01T12:09:41.082Z,2.67
2023-01-01T12:12:14.191Z,2.20
2023-01-01T12:14:51.375Z,4.27
2023-01-01T12:17:23.503Z,3.33
2023-01-01T12:20:00.431Z,3.30
2023-01-01T12:22:28.667Z,3.47
2023-01-01T12:24:56.803Z,3.00
2023-01-01T12:27:41.251Z,2.70
2023-01-01T12:30:20.444Z,3.43
2023-01-01T12:33:16.909Z,2.83
2023-01-01T12:35:59.177Z,1.93
2023-01-01T12:39:02.267Z,2.60
2023-01-01T12:41:37.600Z,2.10
2023-01-01T12:44:14.008Z,1.93
2023-01-01T12:46:50.293Z,2.70
2023-01-01T12:49:40.997Z,2.57
2023-01-01T12:52:19.482Z,2.27
2023-01-01T12:55:13.685Z,1.90
2023-01-01T12:57:47.343Z,2.17
2023-01-01T13:00:17.069Z,2.60
2023-01-01T13:02:51.770Z,2.20
2023-01-01T13:05:23.784Z,2.70
2023-01-01T13:07:55.620Z,2.37
2023-01-01T13:10:27.859Z,2.00
2023-01-01T13:12:56.972Z,2.27
2023-01-01T13:15:46.053Z,2.10
2023-01-01T13:18:30.783Z,2.37
2023-01-01T13:21:02.264Z,1.97
2023-01-01T13:23:52.804Z,2.63
2023-01-01T13:26:42.784Z,2.47
2023-01-01T13:29:44.377Z,2.27
2023-01-01T13:32:15.789Z,2.27
2023-01-01T13:35:05.838Z,2.20
2023-01-01T13:37:47.354Z,2.40
2023-01-01T13:40:50.402Z,2.57
2023-01-01T13:43:33.386Z,2.83
2023-01-01T13:46:13.536Z,2.37
2023-01-01T13:49:25.235Z,2.30
2023-01-01T13:52:07.157Z,3.00
2023-01-01T13:55:04.151Z,1.97
2023-01-01T13:58:13.915Z,2.70
2023-01-01T14:00:55.809Z,2.73
2023-01-01T14:03:27.379Z,2.93
2023-01-01T14:06:00.680Z,2.10
2023-01-01T14:08:31.763Z,2.87
2023-01-01T14:11:01.902Z,2.13
2023-01-01T14:13:32.179Z,2.40
2023-01-01T14:16:02.541Z,2.10
2023-01-01T14:18:35.276Z,2.50
2023-01-01T14:21:03.565Z,2.33
2023-01-01T14:23:35.735Z,2.17
2023-01-01T14:26:07.640Z,2.30
2023-01-01T14:28:36.744Z,2.00
2023-01-01T14:31:11.138Z,2.50
2023-01-01T14:33:39.818Z,2.40
2023-01-01T14:36:17.756Z,2.23
2023-01-01T14:38:48.966Z,1.90
2023-01-01T14:41:21.488Z,2.80
2023-01-01T14:43:53.605Z,2.10
2023-01-01T14:46:25.287Z,2.47
2023-01-01T14:48:56.245Z,2.53
2023-01-01T14:51:25.811Z,2.30
2023-01-01T14:53:59.241Z,3.33
2023-01-01T14:56:30.276Z,3.47
2023-01-01T14:59:06.339Z,3.30
2023-01-01T15:01:36.445Z,2.77
2023-01-01T15:04:16.788Z,3.30
2023-01-01T15:06:44.401Z,46.10
2023-01-01T15:09:17.185Z,6.20
2023-01-01T15:11:44.971Z,8.90
2023-01-01T15:14:31.732Z,4.20
2023-01-01T15:17:03.984Z,5.13
2023-01-01T15:19:31.729Z,3.60
2023-01-01T15:22:00.399Z,3.73
2023-01-01T15:24:30.492Z,3.80
2023-01-01T15:26:59.775Z,3.27
2023-01-01T15:29:30.158Z,2.47
2023-01-01T15:31:59.978Z,2.80
2023-01-01T15:34:33.865Z,3.50
2023-01-01T15:37:14.409Z,4.23
2023-01-01T15:39:52.716Z,2.73
2023-01-01T15:42:33.063Z,2.27
2023-01-01T15:45:18.752Z,3.00
2023-01-01T15:47:48.100Z,5.87
2023-01-01T15:50:22.618Z,2.73
2023-01-01T15:52:55.741Z,2.97
2023-01-01T15:55:28.831Z,2.33
2023-01-01T15:57:57.420Z,2.47
2023-01-01T16:00:28.223Z,4.07
2023-01-01T16:03:01.289Z,3.93
2023-01-01T16:05:29.210Z,7.43
2023-01-01T16:08:01.804Z,13.10
2023-01-01T16:10:31.707Z,15.30
2023-01-01T16:13:00.488Z,17.30
2023-01-01T16:15:28.540Z,20.00
2023-01-01T16:17:56.320Z,13.00
2023-01-01T16:20:25.321Z,16.30
2023-01-01T16:22:52.964Z,8.73
2023-01-01T16:25:22.762Z,7.30
2023-01-01T16:27:51.978Z,4.50
2023-01-01T16:30:19.539Z,2.53
2023-01-01T16:32:48.967Z,5.50
2023-01-01T16:35:17.561Z,5.03
2023-01-01T16:37:46.508Z,2.97
2023-01-01T16:40:14.388Z,3.10
2023-01-01T16:42:42.570Z,4.13
2023-01-01T16:45:18.885Z,3.70
2023-01-01T16:47:46.899Z,2.33
2023-01-01T16:50:14.726Z,8.90
2023-01-01T16:52:45.102Z,8.17
2023-01-01T16:55:15.824Z,6.10
2023-01-01T16:57:44.814Z,5.33
2023-01-01T17:00:13.606Z,4.20
2023-01-01T17:02:43.304Z,5.37
2023-01-01T17:05:13.865Z,4.80
2023-01-01T17:07:41.814Z,8.83
2023-01-01T17:10:09.715Z,5.63
2023-01-01T17:12:37.260Z,5.67
2023-01-01T17:15:05.618Z,7.00
2023-01-01T17:17:33.178Z,6.03
2023-01-01T17:20:02.137Z,3.53
2023-01-01T17:22:34.186Z,4.50
2023-01-01T17:25:02.348Z,3.43
2023-01-01T17:27:31.699Z,2.70
2023-01-01T17:29:59.268Z,3.47
2023-01-01T17:32:27.075Z,3.40
2023-01-01T17:34:54.787Z,3.37
2023-01-01T17:37:23.867Z,3.77
2023-01-01T17:39:51.759Z,3.50
2023-01-01T17:42:19.418Z,3.33
2023-01-01T17:44:47.195Z,8.47
2023-01-01T17:47:14.760Z,18.30
2023-01-01T17:49:43.082Z,5.87
2023-01-01T17:52:10.653Z,3.70
2023-01-01T17:54:39.554Z,3.10
2023-01-01T17:57:08.033Z,4.53
2023-01-01T17:59:35.641Z,3.63
2023-01-01T18:02:03.252Z,3.67
2023-01-01T18:04:32.727Z,4.57
2023-01-01T18:07:05.888Z,3.90
2023-01-01T18:09:36.938Z,3.80
2023-01-01T18:12:09.040Z,3.13
2023-01-01T18:14:36.655Z,3.30
2023-01-01T18:17:04.368Z,4.07
2023-01-01T18:19:32.429Z,4.40
2023-01-01T18:22:00.014Z,3.77
2023-01-01T18:24:27.718Z,3.40
2023-01-01T18:26:55.409Z,3.97
2023-01-01T18:29:24.682Z,3.70
2023-01-01T18:31:52.592Z,4.67
2023-01-01T18:34:22.401Z,3.40
2023-01-01T18:36:50.470Z,3.20
2023-01-01T18:39:22.721Z,3.70
2023-01-01T18:42:34.741Z,4.63
2023-01-01T18:45:14.480Z,4.30
2023-01-01T18:47:42.635Z,3.53
2023-01-01T18:50:23.851Z,3.80
2023-01-01T18:52:54.300Z,3.97
2023-01-01T18:55:28.186Z,3.60
2023-01-01T18:58:00.556Z,4.67
2023-01-01T19:00:33.620Z,4.30
2023-01-01T19:03:03.590Z,4.00
2023-01-01T19:05:33.368Z,4.03
2023-01-01T19:08:11.253Z,3.80
2023-01-01T19:10:45.929Z,4.20
2023-01-01T19:13:19.911Z,3.87
2023-01-01T19:15:53.729Z,3.10
2023-01-01T19:18:24.093Z,4.03
2023-01-01T19:20:59.220Z,3.20
2023-01-01T19:23:26.828Z,3.60
2023-01-01T19:26:01.406Z,3.90
2023-01-01T19:28:36.684Z,3.90
2023-01-01T19:31:07.354Z,3.60
2023-01-01T19:33:35.401Z,3.27
2023-01-01T19:36:02.992Z,3.43
2023-01-01T19:38:31.377Z,3.40
2023-01-01T19:40:58.971Z,3.00
2023-01-01T19:43:26.834Z,4.10
2023-01-01T19:45:54.677Z,3.83
2023-01-01T19:48:23.819Z,3.73
2023-01-01T19:50:52.443Z,3.53
2023-01-01T19:53:20.291Z,4.97
2023-01-01T19:55:47.864Z,4.10
2023-01-01T19:58:16.101Z,3.93
2023-01-01T20:00:44.041Z,3.53
2023-01-01T20:03:52.249Z,3.90
2023-01-01T20:06:04.620Z,3.77
2023-01-01T20:08:33.402Z,4.00
2023-01-01T20:11:01.762Z,3.60
2023-01-01T20:13:29.319Z,4.40
2023-01-01T20:15:58.037Z,3.43
2023-01-01T20:18:25.886Z,3.97
2023-01-01T20:21:11.454Z,3.70
2023-01-01T20:23:40.386Z,5.00
2023-01-01T20:26:09.508Z,3.87
2023-01-01T20:28:54.957Z,3.47
2023-01-01T20:31:22.839Z,5.13
2023-01-01T20:33:51.420Z,4.57
2023-01-01T20:36:36.678Z,3.70
2023-01-01T20:39:08.056Z,5.03
2023-01-01T20:41:35.597Z,3.60
2023-01-01T20:44:03.170Z,3.37
2023-01-01T20:46:31.154Z,4.00
2023-01-01T20:48:59.122Z,3.70
2023-01-01T20:51:26.894Z,3.73
2023-01-01T20:53:56.849Z,4.67
2023-01-01T20:56:26.813Z,3.93
2023-01-01T20:59:04.401Z,4.93
2023-01-01T21:01:40.733Z,4.27
2023-01-01T21:04:08.356Z,4.10
2023-01-01T21:06:36.331Z,4.33
2023-01-01T21:09:04.998Z,4.63
2023-01-01T21:11:36.511Z,4.77
2023-01-01T21:14:06.569Z,4.30
2023-01-01T21:16:36.927Z,4.23
2023-01-01T21:19:07.952Z,4.90
2023-01-01T21:21:43.460Z,4.30
2023-01-01T21:24:19.924Z,5.20
2023-01-01T21:26:58.434Z,4.47
2023-01-01T21:29:26.971Z,4.90
2023-01-01T21:32:06.798Z,4.50
2023-01-01T21:34:40.705Z,9.63
2023-01-01T21:37:14.536Z,9.43
2023-01-01T21:39:42.880Z,6.30
2023-01-01T21:42:23.422Z,4.20
2023-01-01T21:44:59.078Z,5.50
2023-01-01T21:47:28.014Z,5.10
2023-01-01T21:49:57.280Z,5.53
2023-01-01T21:52:26.153Z,4.93
2023-01-01T21:54:55.581Z,5.10
2023-01-01T21:57:26.261Z,4.70
2023-01-01T21:59:54.801Z,4.77
2023-01-01T22:02:32.654Z,5.20
2023-01-01T22:05:02.094Z,5.10
2023-01-01T22:10:26.438Z,4.53
2023-01-01T22:12:59.504Z,4.50
2023-01-01T22:15:40.241Z,4.50
2023-01-01T22:18:24.037Z,5.00
2023-01-01T22:20:54.763Z,4.53
2023-01-01T22:23:37.896Z,6.80
2023-01-01T22:26:18.620Z,5.53
2023-01-01T22:28:52.027Z,5.50
2023-01-01T22:31:24.538Z,5.00
2023-01-01T22:33:53.839Z,5.07
2023-01-01T22:36:27.687Z,4.10
2023-01-01T22:39:05.705Z,5.00
2023-01-01T22:41:34.118Z,5.10
2023-01-01T22:44:05.342Z,4.83
2023-01-01T22:46:37.195Z,4.47
2023-01-01T22:49:18.035Z,4.90
2023-01-01T22:51:47.244Z,4.57
2023-01-01T22:54:14.846Z,4.60
2023-01-01T22:56:42.501Z,4.43
2023-01-01T22:59:11.421Z,4.77
2023-01-01T23:01:39.126Z,4.87
2023-01-01T23:04:06.832Z,4.40
2023-01-01T23:06:34.517Z,4.97
2023-01-01T23:09:02.151Z,5.03
2023-01-01T23:11:29.719Z,4.70
2023-01-01T23:14:14.823Z,4.87
2023-01-01T23:16:43.739Z,4.93
2023-01-01T23:19:11.376Z,5.90
2023-01-01T23:21:41.120Z,5.10
2023-01-01T23:24:12.565Z,5.50
2023-01-01T23:26:43.335Z,6.43
2023-01-01T23:29:12.281Z,6.73
2023-01-01T23:31:41.019Z,5.03
2023-01-01T23:34:10.301Z,4.77
2023-01-01T23:36:38.858Z,4.67
2023-01-01T23:39:06.434Z,4.67
2023-01-01T23:41:34.014Z,5.40
2023-01-01T23:44:01.507Z,5.10
2023-01-01T23:46:29.284Z,5.10
2023-01-01T23:48:56.927Z,5.60
2023-01-01T23:51:25.899Z,5.60
2023-01-01T23:53:53.486Z,5.33
2023-01-01T23:56:21.019Z,5.23
2023-01-01T23:58:48.567Z,5.13
